createdAt,value
2023-05-18T00:00:17.382Z,76.01
2023-05-18T00:01:20.771Z,75.85
2023-05-18T00:02:24.793Z,75.54
2023-05-18T00:03:27.858Z,75.43
2023-05-18T00:04:35.798Z,75.32
2023-05-18T00:05:39.264Z,75.49
2023-05-18T00:06:42.808Z,75.41
2023-05-18T00:07:46.366Z,75.22
2023-05-18T00:08:49.550Z,75.25
2023-05-18T00:09:52.402Z,75.47
2023-05-18T00:10:55.349Z,75.72
2023-05-18T00:11:58.950Z,75.95
2023-05-18T00:13:01.786Z,75.95
2023-05-18T00:14:04.689Z,75.56
2023-05-18T00:15:08.087Z,75.61
2023-05-18T00:16:13.351Z,75.60
2023-05-18T00:17:17.331Z,75.92
2023-05-18T00:18:25.214Z,75.86
2023-05-18T00:19:28.122Z,75.65
2023-05-18T00:20:31.330Z,75.64
2023-05-18T00:21:34.926Z,75.65
2023-05-18T00:22:37.831Z,75.86
2023-05-18T00:23:40.812Z,75.70
2023-05-18T00:24:43.648Z,75.68
2023-05-18T00:25:46.959Z,75.70
2023-05-18T00:26:53.390Z,75.81
2023-05-18T00:27:56.224Z,75.85
2023-05-18T00:28:59.125Z,75.63
2023-05-18T00:30:02.192Z,75.67
2023-05-18T00:31:05.167Z,75.94
2023-05-18T00:32:08.204Z,75.95
2023-05-18T00:33:11.110Z,76.06
2023-05-18T00:34:15.209Z,76.14
2023-05-18T00:35:18.122Z,75.71
2023-05-18T00:36:21.005Z,75.57
2023-05-18T00:37:23.875Z,75.63
2023-05-18T00:38:26.871Z,75.81
2023-05-18T00:39:29.735Z,75.35
2023-05-18T00:40:32.743Z,75.61
2023-05-18T00:41:35.612Z,75.65
2023-05-18T00:42:38.441Z,75.59
2023-05-18T00:43:44.396Z,75.46
2023-05-18T00:44:47.264Z,75.75
2023-05-18T00:45:50.226Z,75.74
2023-05-18T00:46:53.169Z,75.70
2023-05-18T00:47:56.039Z,76.00
2023-05-18T00:48:59.966Z,76.13
2023-05-18T00:50:02.901Z,76.14
2023-05-18T00:51:06.896Z,75.87
2023-05-18T00:52:09.901Z,75.98
2023-05-18T00:53:13.118Z,76.35
2023-05-18T00:54:16.825Z,76.54
2023-05-18T00:55:19.900Z,76.50
2023-05-18T00:56:24.936Z,76.62
2023-05-18T00:57:28.144Z,76.81
2023-05-18T00:58:31.339Z,76.86
2023-05-18T00:59:34.627Z,76.82
2023-05-18T01:00:38.964Z,76.96
2023-05-18T01:01:46.069Z,77.13
2023-05-18T01:02:52.242Z,77.12
2023-05-18T01:03:57.829Z,76.99
2023-05-18T01:05:01.936Z,76.88
2023-05-18T01:06:08.042Z,76.82
2023-05-18T01:07:12.378Z,77.04
2023-05-18T01:08:15.312Z,76.98
2023-05-18T01:09:19.145Z,77.07
2023-05-18T01:10:22.163Z,77.24
2023-05-18T01:11:34.078Z,77.32
2023-05-18T01:13:03.215Z,77.42
2023-05-18T01:14:22.514Z,77.52
2023-05-18T01:15:34.258Z,77.46
2023-05-18T01:16:46.065Z,77.55
2023-05-18T01:18:06.225Z,77.66
2023-05-18T01:19:29.802Z,77.75
2023-05-18T01:20:35.289Z,77.93
2023-05-18T01:22:05.430Z,78.08
2023-05-18T01:23:36.858Z,78.18
2023-05-18T01:24:50.248Z,78.30
2023-05-18T01:25:55.959Z,78.50
2023-05-18T01:27:02.032Z,78.58
2023-05-18T01:28:09.854Z,78.68
2023-05-18T01:29:15.327Z,78.88
2023-05-18T01:30:19.432Z,78.84
2023-05-18T01:31:22.388Z,78.70
2023-05-18T01:32:25.324Z,78.78
2023-05-18T01:33:28.242Z,79.00
2023-05-18T01:34:31.158Z,78.98
2023-05-18T01:35:34.096Z,78.96
2023-05-18T01:36:36.989Z,79.03
2023-05-18T01:37:39.805Z,79.23
2023-05-18T01:38:44.275Z,79.25
2023-05-18T01:39:47.469Z,79.27
2023-05-18T01:41:16.108Z,79.37
2023-05-18T01:42:26.108Z,79.33
2023-05-18T01:43:36.249Z,79.37
2023-05-18T01:44:46.720Z,79.52
2023-05-18T01:45:57.436Z,79.56
2023-05-18T01:47:14.072Z,79.64
2023-05-18T01:48:21.941Z,79.72
2023-05-18T01:49:55.984Z,79.61
2023-05-18T01:51:00.916Z,79.64
2023-05-18T01:52:07.826Z,79.64
2023-05-18T01:53:51.813Z,79.80
2023-05-18T01:54:58.817Z,79.72
2023-05-18T01:56:05.062Z,79.89
2023-05-18T01:57:09.665Z,80.10
2023-05-18T01:58:14.596Z,80.15
2023-05-18T01:59:18.328Z,80.18
2023-05-18T02:00:22.066Z,80.33
2023-05-18T02:01:25.308Z,80.03
2023-05-18T02:02:30.560Z,80.23
2023-05-18T02:03:34.689Z,80.23
2023-05-18T02:04:37.832Z,80.24
2023-05-18T02:05:40.673Z,80.45
2023-05-18T02:06:43.903Z,80.58
2023-05-18T02:07:48.675Z,80.72
2023-05-18T02:08:52.732Z,80.77
2023-05-18T02:09:55.637Z,80.76
2023-05-18T02:10:58.586Z,81.05
2023-05-18T02:12:02.125Z,80.52
2023-05-18T02:13:04.966Z,80.61
2023-05-18T02:14:07.928Z,80.91
2023-05-18T02:15:11.244Z,81.05
2023-05-18T02:16:15.000Z,81.03
2023-05-18T02:17:17.902Z,81.07
2023-05-18T02:18:20.724Z,80.92
2023-05-18T02:19:23.712Z,80.97
2023-05-18T02:20:29.768Z,81.14
2023-05-18T02:21:33.291Z,81.10
2023-05-18T02:22:37.381Z,81.11
2023-05-18T02:23:40.459Z,81.13
2023-05-18T02:24:43.314Z,81.22
2023-05-18T02:25:46.117Z,81.17
2023-05-18T02:26:48.955Z,80.81
2023-05-18T02:27:52.012Z,80.91
2023-05-18T02:28:54.972Z,80.93
2023-05-18T02:29:58.072Z,81.16
2023-05-18T02:31:09.012Z,81.10
2023-05-18T02:32:11.947Z,81.08
2023-05-18T02:33:15.105Z,80.94
2023-05-18T02:34:18.447Z,80.94
2023-05-18T02:35:21.322Z,80.79
2023-05-18T02:36:24.837Z,80.85
2023-05-18T02:37:29.589Z,80.73
2023-05-18T02:38:32.446Z,80.80
2023-05-18T02:39:35.347Z,80.89
2023-05-18T02:40:38.261Z,81.00
2023-05-18T02:41:41.113Z,81.08
2023-05-18T02:42:44.279Z,81.07
2023-05-18T02:43:47.217Z,80.88
2023-05-18T02:44:50.057Z,80.80
2023-05-18T02:45:53.116Z,80.82
2023-05-18T02:46:55.974Z,80.84
2023-05-18T02:47:58.844Z,80.83
2023-05-18T02:49:01.747Z,80.90
2023-05-18T02:50:04.824Z,80.96
2023-05-18T02:51:07.698Z,80.83
2023-05-18T02:52:10.554Z,80.85
2023-05-18T02:53:13.630Z,80.69
2023-05-18T02:54:16.761Z,80.75
2023-05-18T02:55:20.308Z,80.80
2023-05-18T02:56:23.151Z,80.67
2023-05-18T02:57:26.124Z,80.79
2023-05-18T02:58:28.992Z,81.02
2023-05-18T02:59:32.582Z,80.95
2023-05-18T03:00:35.502Z,81.13
2023-05-18T03:01:39.103Z,81.17
2023-05-18T03:02:42.044Z,81.18
2023-05-18T03:03:45.061Z,81.11
2023-05-18T03:04:49.449Z,81.05
2023-05-18T03:05:55.494Z,81.09
2023-05-18T03:06:58.600Z,81.11
2023-05-18T03:08:03.713Z,81.26
2023-05-18T03:09:06.575Z,81.24
2023-05-18T03:10:10.236Z,81.32
2023-05-18T03:11:13.066Z,81.41
2023-05-18T03:12:16.466Z,81.41
2023-05-18T03:13:19.512Z,81.33
2023-05-18T03:14:22.446Z,81.10
2023-05-18T03:15:25.385Z,81.14
2023-05-18T03:16:29.923Z,81.06
2023-05-18T03:17:32.860Z,81.10
2023-05-18T03:18:35.821Z,81.08
2023-05-18T03:19:38.822Z,81.06
2023-05-18T03:20:42.013Z,80.90
2023-05-18T03:21:45.235Z,80.79
2023-05-18T03:22:48.076Z,80.78
2023-05-18T03:23:50.900Z,80.91
2023-05-18T03:24:56.728Z,81.10
2023-05-18T03:25:59.618Z,81.21
2023-05-18T03:27:03.640Z,81.26
2023-05-18T03:28:06.935Z,81.24
2023-05-18T03:29:09.786Z,80.97
2023-05-18T03:30:13.081Z,80.84
2023-05-18T03:31:15.988Z,80.95
2023-05-18T03:32:19.558Z,80.95
2023-05-18T03:33:23.017Z,80.93
2023-05-18T03:34:27.156Z,81.03
2023-05-18T03:35:30.728Z,81.02
2023-05-18T03:36:33.814Z,80.85
2023-05-18T03:37:36.778Z,80.93
2023-05-18T03:38:39.755Z,81.06
2023-05-18T03:39:42.603Z,81.14
2023-05-18T03:40:45.453Z,81.31
2023-05-18T03:41:48.302Z,81.49
2023-05-18T03:42:51.181Z,81.45
2023-05-18T03:43:54.092Z,81.37
2023-05-18T03:44:57.014Z,81.13
2023-05-18T03:45:59.956Z,81.20
2023-05-18T03:47:02.897Z,81.33
2023-05-18T03:48:06.002Z,81.26
2023-05-18T03:49:09.270Z,81.06
2023-05-18T03:50:12.865Z,81.18
2023-05-18T03:51:15.958Z,81.07
2023-05-18T03:52:23.454Z,81.07
2023-05-18T03:53:26.283Z,81.26
2023-05-18T03:54:29.170Z,80.93
2023-05-18T03:55:32.320Z,81.10
2023-05-18T03:56:35.329Z,81.21
2023-05-18T03:57:38.320Z,81.40
2023-05-18T03:58:41.171Z,81.62
2023-05-18T03:59:44.840Z,81.55
2023-05-18T04:00:48.751Z,81.51
2023-05-18T04:01:55.222Z,81.62
2023-05-18T04:02:58.550Z,81.72
2023-05-18T04:04:02.045Z,81.54
2023-05-18T04:05:05.456Z,81.47
2023-05-18T04:06:08.567Z,81.50
2023-05-18T04:07:11.807Z,81.37
2023-05-18T04:08:15.927Z,81.37
2023-05-18T04:09:23.098Z,81.22
2023-05-18T04:10:26.054Z,81.31
2023-05-18T04:11:28.953Z,81.36
2023-05-18T04:12:32.005Z,81.09
2023-05-18T04:13:34.851Z,81.16
2023-05-18T04:14:38.310Z,81.24
2023-05-18T04:15:41.161Z,81.34
2023-05-18T04:16:44.353Z,81.22
2023-05-18T04:17:47.345Z,81.04
2023-05-18T04:18:50.351Z,81.21
2023-05-18T04:19:53.472Z,81.19
2023-05-18T04:20:56.490Z,81.30
2023-05-18T04:21:59.430Z,81.29
2023-05-18T04:23:02.375Z,81.34
2023-05-18T04:24:07.023Z,81.39
2023-05-18T04:25:12.168Z,81.61
2023-05-18T04:26:21.188Z,81.67
2023-05-18T04:27:24.234Z,81.64
2023-05-18T04:28:27.094Z,81.81
2023-05-18T04:29:31.074Z,81.95
2023-05-18T04:30:34.205Z,81.95
2023-05-18T04:31:37.566Z,81.86
2023-05-18T04:32:44.003Z,81.71
2023-05-18T04:33:48.594Z,81.60
2023-05-18T04:34:51.790Z,81.48
2023-05-18T04:35:56.514Z,81.58
2023-05-18T04:37:02.238Z,81.73
2023-05-18T04:38:06.506Z,81.84
2023-05-18T04:39:10.486Z,81.41
2023-05-18T04:40:14.955Z,81.58
2023-05-18T04:41:21.769Z,81.50
2023-05-18T04:42:24.671Z,81.66
2023-05-18T04:43:29.575Z,81.39
2023-05-18T04:44:36.274Z,81.52
2023-05-18T04:45:39.246Z,81.74
2023-05-18T04:46:42.193Z,81.80
2023-05-18T04:47:47.895Z,81.90
2023-05-18T04:48:51.246Z,82.01
2023-05-18T04:49:54.080Z,81.87
2023-05-18T04:50:57.413Z,81.90
2023-05-18T04:52:00.560Z,81.79
2023-05-18T04:53:04.642Z,81.58
2023-05-18T04:54:07.665Z,81.65
2023-05-18T04:55:12.222Z,81.91
2023-05-18T04:56:15.286Z,81.91
2023-05-18T04:57:18.141Z,81.85
2023-05-18T04:58:21.007Z,81.94
2023-05-18T04:59:27.590Z,82.04
2023-05-18T05:00:31.583Z,82.07
2023-05-18T05:01:34.485Z,82.13
2023-05-18T05:02:37.643Z,82.17
2023-05-18T05:03:40.674Z,82.08
2023-05-18T05:04:43.595Z,81.80
2023-05-18T05:05:46.629Z,81.86
2023-05-18T05:06:49.582Z,81.86
2023-05-18T05:07:53.748Z,81.73
2023-05-18T05:08:56.869Z,81.70
2023-05-18T05:09:59.801Z,81.90
2023-05-18T05:11:02.951Z,82.02
2023-05-18T05:12:06.055Z,81.80
2023-05-18T05:13:10.508Z,81.83
2023-05-18T05:14:13.852Z,81.83
2023-05-18T05:15:17.104Z,81.60
2023-05-18T05:16:20.038Z,81.72
2023-05-18T05:17:24.204Z,81.90
2023-05-18T05:18:27.216Z,81.95
2023-05-18T05:19:30.151Z,81.88
2023-05-18T05:20:33.219Z,81.86
2023-05-18T05:21:36.121Z,81.87
2023-05-18T05:22:39.082Z,81.87
2023-05-18T05:23:42.601Z,81.65
2023-05-18T05:24:45.485Z,81.75
2023-05-18T05:25:48.384Z,81.76
2023-05-18T05:26:51.296Z,81.88
2023-05-18T05:27:54.139Z,81.56
2023-05-18T05:28:57.166Z,81.50
2023-05-18T05:29:59.994Z,81.54
2023-05-18T05:31:02.954Z,81.69
2023-05-18T05:32:06.483Z,81.86
2023-05-18T05:33:09.407Z,81.86
2023-05-18T05:34:13.324Z,81.87
2023-05-18T05:35:16.236Z,81.92
2023-05-18T05:36:19.166Z,81.61
2023-05-18T05:37:22.084Z,81.72
2023-05-18T05:38:24.974Z,81.82
2023-05-18T05:39:27.805Z,81.91
2023-05-18T05:40:30.657Z,81.97
2023-05-18T05:41:33.493Z,82.07
2023-05-18T05:42:36.829Z,82.13
2023-05-18T05:43:39.703Z,82.15
2023-05-18T05:44:42.780Z,82.12
2023-05-18T05:45:45.802Z,81.97
2023-05-18T05:46:48.805Z,81.90
2023-05-18T05:47:52.004Z,81.95
2023-05-18T05:48:54.893Z,81.75
2023-05-18T05:49:57.741Z,81.50
2023-05-18T05:51:00.672Z,81.54
2023-05-18T05:52:03.705Z,81.60
2023-05-18T05:53:06.748Z,81.72
2023-05-18T05:54:10.833Z,81.87
2023-05-18T05:55:13.831Z,81.90
2023-05-18T05:56:17.185Z,81.97
2023-05-18T05:57:20.014Z,81.93
2023-05-18T05:58:22.839Z,81.95
2023-05-18T05:59:25.755Z,81.96
2023-05-18T06:00:30.071Z,81.94
2023-05-18T06:01:33.551Z,81.89
2023-05-18T06:02:36.601Z,81.79
2023-05-18T06:03:39.919Z,81.84
2023-05-18T06:04:42.908Z,81.98
2023-05-18T06:05:45.749Z,81.99
2023-05-18T06:06:49.141Z,81.89
2023-05-18T06:07:51.985Z,81.94
2023-05-18T06:08:54.855Z,81.57
2023-05-18T06:09:57.855Z,81.26
2023-05-18T06:11:00.767Z,81.37
2023-05-18T06:12:03.605Z,81.59
2023-05-18T06:13:06.485Z,81.62
2023-05-18T06:14:09.340Z,81.61
2023-05-18T06:15:12.800Z,81.68
2023-05-18T06:16:15.753Z,81.86
2023-05-18T06:17:18.697Z,81.68
2023-05-18T06:18:21.627Z,81.70
2023-05-18T06:19:24.584Z,81.75
2023-05-18T06:20:28.652Z,81.78
2023-05-18T06:21:32.896Z,81.67
2023-05-18T06:22:36.166Z,81.49
2023-05-18T06:23:41.712Z,81.44
2023-05-18T06:24:44.960Z,81.58
2023-05-18T06:25:48.711Z,81.52
2023-05-18T06:26:52.209Z,81.44
2023-05-18T06:27:55.012Z,81.28
2023-05-18T06:28:57.896Z,81.37
2023-05-18T06:30:00.744Z,81.59
2023-05-18T06:31:03.829Z,81.59
2023-05-18T06:32:07.621Z,81.65
2023-05-18T06:33:10.624Z,81.80
2023-05-18T06:34:13.577Z,81.64
2023-05-18T06:35:16.539Z,81.76
2023-05-18T06:36:19.772Z,81.86
2023-05-18T06:37:22.698Z,81.78
2023-05-18T06:38:25.547Z,81.79
2023-05-18T06:39:28.408Z,81.76
2023-05-18T06:40:31.276Z,81.75
2023-05-18T06:41:34.751Z,81.78
2023-05-18T06:42:37.853Z,81.92
2023-05-18T06:43:40.719Z,81.95
2023-05-18T06:44:43.555Z,82.03
2023-05-18T06:45:47.610Z,81.62
2023-05-18T06:46:50.536Z,81.46
2023-05-18T06:47:53.423Z,81.37
2023-05-18T06:48:56.540Z,81.57
2023-05-18T06:49:59.481Z,81.75
2023-05-18T06:51:02.369Z,81.97
2023-05-18T06:52:05.986Z,82.02
2023-05-18T06:53:08.832Z,81.70
2023-05-18T06:54:11.698Z,81.62
2023-05-18T06:55:14.750Z,81.72
2023-05-18T06:56:18.006Z,81.87
2023-05-18T06:57:20.971Z,81.99
2023-05-18T06:58:24.246Z,82.01
2023-05-18T06:59:27.101Z,82.04
2023-05-18T07:00:30.008Z,82.10
2023-05-18T07:01:33.262Z,82.09
2023-05-18T07:02:36.187Z,82.03
2023-05-18T07:03:39.142Z,82.13
2023-05-18T07:04:42.673Z,81.88
2023-05-18T07:05:45.506Z,81.70
2023-05-18T07:06:48.482Z,81.75
2023-05-18T07:07:51.695Z,81.84
2023-05-18T07:08:54.683Z,81.62
2023-05-18T07:09:58.345Z,81.88
2023-05-18T07:11:03.685Z,81.80
2023-05-18T07:12:07.027Z,81.87
2023-05-18T07:13:10.007Z,81.96
2023-05-18T07:14:12.934Z,81.86
2023-05-18T07:15:15.846Z,81.95
2023-05-18T07:16:18.782Z,81.71
2023-05-18T07:17:21.675Z,81.59
2023-05-18T07:18:24.550Z,81.77
2023-05-18T07:19:27.603Z,81.86
2023-05-18T07:20:30.528Z,82.05
2023-05-18T07:21:33.486Z,81.98
2023-05-18T07:22:36.467Z,82.18
2023-05-18T07:23:39.387Z,82.19
2023-05-18T07:24:42.276Z,82.02
2023-05-18T07:25:45.130Z,81.98
2023-05-18T07:26:47.989Z,82.09
2023-05-18T07:27:53.346Z,82.29
2023-05-18T07:28:56.624Z,82.46
2023-05-18T07:29:59.536Z,82.39
2023-05-18T07:31:02.489Z,82.42
2023-05-18T07:32:05.768Z,82.44
2023-05-18T07:33:08.782Z,82.47
2023-05-18T07:34:11.935Z,82.43
2023-05-18T07:35:15.018Z,82.39
2023-05-18T07:36:18.261Z,82.26
2023-05-18T07:37:21.147Z,82.06
2023-05-18T07:38:24.005Z,82.15
2023-05-18T07:39:30.104Z,82.32
2023-05-18T07:40:32.970Z,82.43
2023-05-18T07:41:36.104Z,82.68
2023-05-18T07:42:42.695Z,82.84
2023-05-18T07:43:45.518Z,82.85
2023-05-18T07:44:48.414Z,82.47
2023-05-18T07:45:51.359Z,82.31
2023-05-18T07:46:54.444Z,82.31
2023-05-18T07:47:57.510Z,82.56
2023-05-18T07:49:00.422Z,82.52
2023-05-18T07:50:03.772Z,82.72
2023-05-18T07:51:06.756Z,82.58
2023-05-18T07:52:09.665Z,82.62
2023-05-18T07:53:12.502Z,82.48
2023-05-18T07:54:16.096Z,82.42
2023-05-18T07:55:19.121Z,82.29
2023-05-18T07:56:21.996Z,82.24
2023-05-18T07:57:25.950Z,82.28
2023-05-18T07:58:28.866Z,81.92
2023-05-18T07:59:32.260Z,81.84
2023-05-18T08:00:35.785Z,82.46
2023-05-18T08:01:38.982Z,82.38
2023-05-18T08:02:42.056Z,82.46
2023-05-18T08:03:45.316Z,82.41
2023-05-18T08:04:49.067Z,82.36
2023-05-18T08:05:52.124Z,82.55
2023-05-18T08:06:56.691Z,82.84
2023-05-18T08:07:59.521Z,82.89
2023-05-18T08:09:02.493Z,82.96
2023-05-18T08:10:06.120Z,82.94
2023-05-18T08:11:09.192Z,82.92
2023-05-18T08:12:12.140Z,82.90
2023-05-18T08:13:15.062Z,82.92
2023-05-18T08:14:17.936Z,82.88
2023-05-18T08:15:20.806Z,82.65
2023-05-18T08:16:23.746Z,82.58
2023-05-18T08:17:26.725Z,82.66
2023-05-18T08:18:29.853Z,82.84
2023-05-18T08:19:33.109Z,82.96
2023-05-18T08:20:35.999Z,83.15
2023-05-18T08:21:38.911Z,83.01
2023-05-18T08:22:41.793Z,82.71
2023-05-18T08:23:44.784Z,83.06
2023-05-18T08:24:48.171Z,83.04
2023-05-18T08:25:51.032Z,82.92
2023-05-18T08:26:53.924Z,83.11
2023-05-18T08:27:57.211Z,83.08
2023-05-18T08:29:00.100Z,82.57
2023-05-18T08:30:03.002Z,82.50
2023-05-18T08:31:05.974Z,82.54
2023-05-18T08:32:09.347Z,82.58
2023-05-18T08:33:12.353Z,82.62
2023-05-18T08:34:15.224Z,82.66
2023-05-18T08:35:18.831Z,82.81
2023-05-18T08:36:21.708Z,82.97
2023-05-18T08:37:30.344Z,82.83
2023-05-18T08:38:34.125Z,82.63
2023-05-18T08:39:38.490Z,82.47
2023-05-18T08:40:48.361Z,82.39
2023-05-18T08:41:59.893Z,82.10
2023-05-18T08:43:16.707Z,81.89
2023-05-18T08:44:25.510Z,81.95
2023-05-18T08:45:41.727Z,82.19
2023-05-18T08:46:52.093Z,81.94
2023-05-18T08:47:58.827Z,82.43
2023-05-18T08:49:04.753Z,82.58
2023-05-18T08:50:09.451Z,82.64
2023-05-18T08:51:13.547Z,82.86
2023-05-18T08:52:19.899Z,83.06
2023-05-18T08:53:25.672Z,82.94
2023-05-18T08:54:29.475Z,82.74
2023-05-18T08:55:38.299Z,82.61
2023-05-18T08:56:41.894Z,82.34
2023-05-18T08:57:47.761Z,82.25
2023-05-18T08:58:52.844Z,82.43
2023-05-18T08:59:57.706Z,82.49
2023-05-18T09:01:00.651Z,82.42
2023-05-18T09:02:03.751Z,82.47
2023-05-18T09:03:07.479Z,82.72
2023-05-18T09:04:11.315Z,82.92
2023-05-18T09:05:16.429Z,83.39
2023-05-18T09:06:19.718Z,83.35
2023-05-18T09:07:23.312Z,83.30
2023-05-18T09:08:26.503Z,82.80
2023-05-18T09:09:30.072Z,82.67
2023-05-18T09:10:35.022Z,82.46
2023-05-18T09:11:39.468Z,82.44
2023-05-18T09:12:44.612Z,82.67
2023-05-18T09:13:48.063Z,82.43
2023-05-18T09:14:51.061Z,82.20
2023-05-18T09:15:54.029Z,82.04
2023-05-18T09:16:57.101Z,82.03
2023-05-18T09:18:00.035Z,82.21
2023-05-18T09:19:03.128Z,82.39
2023-05-18T09:20:07.137Z,82.55
2023-05-18T09:21:10.431Z,82.29
2023-05-18T09:22:13.457Z,82.25
2023-05-18T09:23:18.873Z,81.88
2023-05-18T09:24:24.577Z,81.94
2023-05-18T09:25:28.834Z,82.39
2023-05-18T09:26:32.232Z,82.54
2023-05-18T09:27:35.351Z,82.55
2023-05-18T09:28:43.246Z,82.55
2023-05-18T09:29:59.677Z,82.57
2023-05-18T09:31:02.597Z,82.51
2023-05-18T09:32:05.928Z,82.43
2023-05-18T09:33:20.280Z,82.48
2023-05-18T09:34:23.444Z,82.71
2023-05-18T09:35:26.792Z,83.00
2023-05-18T09:36:33.552Z,83.26
2023-05-18T09:37:37.407Z,83.23
2023-05-18T09:38:47.035Z,83.26
2023-05-18T09:40:00.682Z,82.54
2023-05-18T09:41:03.586Z,82.31
2023-05-18T09:42:06.757Z,82.09
2023-05-18T09:43:09.616Z,81.99
2023-05-18T09:44:13.878Z,81.93
2023-05-18T09:45:28.158Z,79.51
2023-05-18T09:46:33.785Z,78.68
2023-05-18T09:47:36.788Z,78.35
2023-05-18T09:48:45.036Z,79.17
2023-05-18T09:49:47.895Z,79.16
2023-05-18T09:50:51.406Z,79.04
2023-05-18T09:51:58.735Z,78.63
2023-05-18T09:53:01.925Z,78.73
2023-05-18T09:54:07.777Z,78.78
2023-05-18T09:55:12.001Z,79.25
2023-05-18T09:56:16.491Z,79.93
2023-05-18T09:57:23.158Z,80.44
2023-05-18T09:58:26.128Z,80.68
2023-05-18T09:59:30.657Z,79.99
2023-05-18T10:00:34.168Z,79.29
2023-05-18T10:01:37.104Z,78.85
2023-05-18T10:02:44.727Z,79.08
2023-05-18T10:03:49.745Z,78.87
2023-05-18T10:04:52.931Z,78.22
2023-05-18T10:05:55.881Z,77.50
2023-05-18T10:06:58.818Z,77.66
2023-05-18T10:08:01.862Z,78.14
2023-05-18T10:09:06.008Z,78.27
2023-05-18T10:10:09.565Z,78.70
2023-05-18T10:11:12.789Z,78.50
2023-05-18T10:12:17.855Z,78.54
2023-05-18T10:13:22.111Z,78.68
2023-05-18T10:14:28.152Z,78.75
2023-05-18T10:15:32.751Z,78.79
2023-05-18T10:16:35.989Z,78.63
2023-05-18T10:17:40.561Z,78.14
2023-05-18T10:18:43.837Z,78.19
2023-05-18T10:19:47.967Z,78.44
2023-05-18T10:20:52.399Z,78.10
2023-05-18T10:21:55.763Z,78.03
2023-05-18T10:23:02.054Z,78.35
2023-05-18T10:24:06.980Z,78.76
2023-05-18T10:25:12.942Z,78.58
2023-05-18T10:26:20.918Z,79.13
2023-05-18T10:27:29.846Z,78.71
2023-05-18T10:28:39.792Z,78.31
2023-05-18T10:29:43.421Z,77.79
2023-05-18T10:30:46.631Z,77.67
2023-05-18T10:31:51.960Z,78.90
2023-05-18T10:32:58.264Z,79.06
2023-05-18T10:34:01.918Z,77.87
2023-05-18T10:35:06.773Z,77.56
2023-05-18T10:36:11.701Z,77.64
2023-05-18T10:37:16.927Z,77.96
2023-05-18T10:38:25.170Z,78.30
2023-05-18T10:39:29.581Z,79.39
2023-05-18T10:40:35.548Z,78.54
2023-05-18T10:41:39.562Z,78.49
2023-05-18T10:42:43.735Z,78.48
2023-05-18T10:43:47.518Z,78.55
2023-05-18T10:44:53.458Z,78.66
2023-05-18T10:45:58.538Z,78.79
2023-05-18T10:47:01.712Z,78.44
2023-05-18T10:48:06.617Z,78.33
2023-05-18T10:49:14.552Z,79.76
2023-05-18T10:50:18.405Z,79.69
2023-05-18T10:52:39.301Z,79.19
2023-05-18T10:53:45.142Z,79.18
2023-05-18T10:54:49.066Z,79.96
2023-05-18T10:55:53.062Z,79.94
2023-05-18T10:56:56.343Z,79.70
2023-05-18T10:58:13.528Z,78.90
2023-05-18T10:59:17.598Z,78.87
2023-05-18T11:00:21.609Z,79.09
2023-05-18T11:01:24.826Z,79.15
2023-05-18T11:02:29.130Z,79.16
2023-05-18T11:03:34.552Z,79.15
2023-05-18T11:04:41.114Z,79.09
2023-05-18T11:05:44.562Z,78.82
2023-05-18T11:06:56.429Z,78.69
2023-05-18T11:08:06.868Z,78.70
2023-05-18T11:09:10.107Z,78.66
2023-05-18T11:10:15.350Z,78.40
2023-05-18T11:11:19.630Z,78.48
2023-05-18T11:12:24.284Z,78.59
2023-05-18T11:13:33.215Z,78.79
2023-05-18T11:14:37.164Z,78.92
2023-05-18T11:15:55.276Z,78.95
2023-05-18T11:17:19.343Z,79.07
2023-05-18T11:18:28.287Z,79.04
2023-05-18T11:19:32.679Z,79.03
2023-05-18T11:20:35.530Z,79.10
2023-05-18T11:21:38.565Z,79.40
2023-05-18T11:23:07.797Z,79.44
2023-05-18T11:24:33.212Z,79.41
2023-05-18T11:25:36.074Z,79.45
2023-05-18T11:26:42.873Z,79.33
2023-05-18T11:27:46.068Z,79.09
2023-05-18T11:28:53.635Z,79.14
2023-05-18T11:30:11.751Z,79.18
2023-05-18T11:31:19.272Z,79.36
2023-05-18T11:32:31.558Z,79.41
2023-05-18T11:33:37.752Z,79.32
2023-05-18T11:34:54.054Z,79.41
2023-05-18T11:36:03.500Z,79.47
2023-05-18T11:37:08.000Z,79.47
2023-05-18T11:38:11.262Z,79.42
2023-05-18T11:39:25.282Z,79.42
2023-05-18T11:40:49.012Z,79.29
2023-05-18T11:42:02.593Z,79.17
2023-05-18T11:43:05.518Z,79.02
2023-05-18T11:44:17.540Z,78.60
2023-05-18T11:45:20.596Z,77.80
2023-05-18T11:46:23.682Z,77.62
2023-05-18T11:47:32.843Z,77.39
2023-05-18T11:48:35.961Z,77.86
2023-05-18T11:49:49.492Z,77.94
2023-05-18T11:50:58.806Z,77.73
2023-05-18T11:52:22.632Z,77.71
2023-05-18T11:53:28.740Z,77.78
2023-05-18T11:55:00.915Z,77.74
2023-05-18T11:56:03.862Z,77.78
2023-05-18T11:57:07.833Z,77.58
2023-05-18T11:58:11.637Z,77.06
2023-05-18T11:59:15.713Z,76.72
2023-05-18T12:00:19.297Z,77.03
2023-05-18T12:01:24.938Z,77.34
2023-05-18T12:02:29.668Z,77.53
2023-05-18T12:03:33.311Z,77.73
2023-05-18T12:04:37.794Z,77.84
2023-05-18T12:05:43.273Z,78.27
2023-05-18T12:06:46.195Z,78.31
2023-05-18T12:07:53.870Z,78.45
2023-05-18T12:08:57.250Z,78.31
2023-05-18T12:10:05.487Z,78.26
2023-05-18T12:11:08.879Z,78.39
2023-05-18T12:12:12.914Z,78.60
2023-05-18T12:13:18.682Z,78.61
2023-05-18T12:14:22.544Z,78.75
2023-05-18T12:15:26.205Z,79.17
2023-05-18T12:16:31.467Z,78.99
2023-05-18T12:17:44.377Z,78.80
2023-05-18T12:18:51.396Z,78.89
2023-05-18T12:19:54.343Z,78.94
2023-05-18T12:20:57.172Z,78.72
2023-05-18T12:22:00.382Z,78.25
2023-05-18T12:23:03.298Z,78.22
2023-05-18T12:24:06.585Z,78.88
2023-05-18T12:25:10.336Z,78.87
2023-05-18T12:26:13.227Z,78.90
2023-05-18T12:27:16.298Z,78.98
2023-05-18T12:28:20.308Z,79.00
2023-05-18T12:29:24.228Z,79.15
2023-05-18T12:30:36.374Z,79.37
2023-05-18T12:31:42.753Z,79.44
2023-05-18T12:32:50.382Z,79.37
2023-05-18T12:33:58.824Z,79.10
2023-05-18T12:35:02.153Z,78.87
2023-05-18T12:36:05.201Z,79.20
2023-05-18T12:37:09.239Z,79.22
2023-05-18T12:38:12.995Z,79.17
2023-05-18T12:39:18.916Z,78.92
2023-05-18T12:40:21.813Z,78.78
2023-05-18T12:41:28.431Z,78.77
2023-05-18T12:42:31.291Z,78.46
2023-05-18T12:43:37.834Z,78.53
2023-05-18T12:44:40.828Z,78.69
2023-05-18T12:45:45.627Z,79.07
2023-05-18T12:46:49.179Z,79.14
2023-05-18T12:49:11.624Z,79.16
2023-05-18T12:50:14.554Z,79.44
2023-05-18T12:51:21.415Z,79.22
2023-05-18T12:52:24.352Z,79.13
2023-05-18T12:53:27.968Z,79.07
2023-05-18T12:54:31.253Z,79.13
2023-05-18T12:55:34.457Z,79.26
2023-05-18T12:57:02.453Z,79.40
2023-05-18T12:58:07.831Z,79.62
2023-05-18T12:59:10.748Z,79.92
2023-05-18T13:00:14.073Z,80.06
2023-05-18T13:01:17.468Z,80.09
2023-05-18T13:02:37.192Z,80.13
2023-05-18T13:03:43.581Z,80.13
2023-05-18T13:04:46.701Z,80.06
2023-05-18T13:06:07.327Z,80.00
2023-05-18T13:07:13.496Z,79.92
2023-05-18T13:08:19.317Z,79.97
2023-05-18T13:09:22.401Z,80.17
2023-05-18T13:10:25.337Z,79.90
2023-05-18T13:11:29.003Z,79.59
2023-05-18T13:12:42.391Z,79.72
2023-05-18T13:14:05.443Z,79.92
2023-05-18T13:15:17.282Z,79.98
2023-05-18T13:16:20.208Z,79.91
2023-05-18T13:17:23.945Z,79.89
2023-05-18T13:18:28.166Z,79.17
2023-05-18T13:19:32.774Z,79.12
2023-05-18T13:20:42.771Z,78.17
2023-05-18T13:21:46.005Z,78.51
2023-05-18T13:22:51.576Z,78.51
2023-05-18T13:23:54.841Z,78.47
2023-05-18T13:24:57.740Z,78.76
2023-05-18T13:26:00.591Z,78.79
2023-05-18T13:27:04.234Z,78.95
2023-05-18T13:28:08.679Z,79.25
2023-05-18T13:29:11.670Z,79.37
2023-05-18T13:30:17.166Z,79.46
2023-05-18T13:31:22.126Z,79.47
2023-05-18T13:32:25.250Z,79.04
2023-05-18T13:33:28.502Z,78.88
2023-05-18T13:34:31.972Z,78.99
2023-05-18T13:35:35.113Z,79.15
2023-05-18T13:36:38.518Z,79.25
2023-05-18T13:37:41.770Z,79.37
2023-05-18T13:38:45.177Z,79.33
2023-05-18T13:39:48.021Z,79.13
2023-05-18T13:40:50.907Z,79.26
2023-05-18T13:41:53.773Z,79.00
2023-05-18T13:42:56.758Z,78.88
2023-05-18T13:43:59.651Z,78.59
2023-05-18T13:45:02.553Z,78.37
2023-05-18T13:46:05.612Z,78.49
2023-05-18T13:47:08.505Z,78.56
2023-05-18T13:48:11.473Z,79.21
2023-05-18T13:49:14.820Z,79.15
2023-05-18T13:50:17.854Z,79.08
2023-05-18T13:51:20.741Z,79.17
2023-05-18T13:52:23.692Z,78.72
2023-05-18T13:53:27.531Z,78.87
2023-05-18T13:54:30.433Z,79.05
2023-05-18T13:55:34.331Z,78.86
2023-05-18T13:56:37.264Z,78.77